sensor_id;sensor_type;location;lat;lon;timestamp;temperature;humidity
34989;DHT22;21192;40.182;44.516;2024-02-28T00:01:53;4.60;51.00
34989;DHT22;21192;40.182;44.516;2024-02-28T00:04:19;4.70;51.30
34989;DHT22;21192;40.182;44.516;2024-02-28T00:06:45;4.60;51.50
34989;DHT22;21192;40.182;44.516;2024-02-28T00:09:14;4.50;51.80
34989;DHT22;21192;40.182;44.516;2024-02-28T00:11:46;4.60;52.10
34989;DHT22;21192;40.182;44.516;2024-02-28T00:14:15;4.60;52.10
34989;DHT22;21192;40.182;44.516;2024-02-28T00:16:45;4.50;52.20
34989;DHT22;21192;40.182;44.516;2024-02-28T00:19:11;4.40;52.40
34989;DHT22;21192;40.182;44.516;2024-02-28T00:21:41;4.40;52.40
34989;DHT22;21192;40.182;44.516;2024-02-28T00:24:07;4.40;52.50
34989;DHT22;21192;40.182;44.516;2024-02-28T00:26:33;4.40;52.40
34989;DHT22;21192;40.182;44.516;2024-02-28T00:28:59;4.40;52.40
34989;DHT22;21192;40.182;44.516;2024-02-28T00:31:25;4.30;52.40
34989;DHT22;21192;40.182;44.516;2024-02-28T00:33:51;4.20;52.50
34989;DHT22;21192;40.182;44.516;2024-02-28T00:36:18;4.10;52.60
34989;DHT22;21192;40.182;44.516;2024-02-28T00:38:44;4.10;52.70
34989;DHT22;21192;40.182;44.516;2024-02-28T00:41:10;4.10;52.70
34989;DHT22;21192;40.182;44.516;2024-02-28T00:43:36;4.00;52.70
34989;DHT22;21192;40.182;44.516;2024-02-28T00:46:02;4.10;52.70
34989;DHT22;21192;40.182;44.516;2024-02-28T00:48:29;4.20;52.60
34989;DHT22;21192;40.182;44.516;2024-02-28T00:50:55;4.20;52.60
34989;DHT22;21192;40.182;44.516;2024-02-28T00:53:21;4.10;52.60
34989;DHT22;21192;40.182;44.516;2024-02-28T00:55:47;4.10;52.70
34989;DHT22;21192;40.182;44.516;2024-02-28T00:58:12;4.00;52.90
34989;DHT22;21192;40.182;44.516;2024-02-28T01:00:38;4.10;53.00
34989;DHT22;21192;40.182;44.516;2024-02-28T01:03:04;4.10;53.00
34989;DHT22;21192;40.182;44.516;2024-02-28T01:05:30;4.00;53.10
34989;DHT22;21192;40.182;44.516;2024-02-28T01:07:56;4.10;53.30
34989;DHT22;21192;40.182;44.516;2024-02-28T01:10:22;4.00;53.20
34989;DHT22;21192;40.182;44.516;2024-02-28T01:12:49;4.00;53.00
34989;DHT22;21192;40.182;44.516;2024-02-28T01:15:15;4.10;53.10
34989;DHT22;21192;40.182;44.516;2024-02-28T01:17:40;4.10;53.10
34989;DHT22;21192;40.182;44.516;2024-02-28T01:20:07;4.10;53.20
34989;DHT22;21192;40.182;44.516;2024-02-28T01:22:34;4.10;53.10
34989;DHT22;21192;40.182;44.516;2024-02-28T01:25:02;4.10;53.00
34989;DHT22;21192;40.182;44.516;2024-02-28T01:27:28;4.00;52.90
34989;DHT22;21192;40.182;44.516;2024-02-28T01:29:54;4.00;53.00
34989;DHT22;21192;40.182;44.516;2024-02-28T01:32:20;3.90;53.00
34989;DHT22;21192;40.182;44.516;2024-02-28T01:34:46;3.90;52.90
34989;DHT22;21192;40.182;44.516;2024-02-28T01:37:12;3.80;53.00
34989;DHT22;21192;40.182;44.516;2024-02-28T01:39:38;3.80;53.20
34989;DHT22;21192;40.182;44.516;2024-02-28T01:42:04;3.80;53.20
34989;DHT22;21192;40.182;44.516;2024-02-28T01:44:30;3.70;53.10
34989;DHT22;21192;40.182;44.516;2024-02-28T01:46:56;3.70;53.20
34989;DHT22;21192;40.182;44.516;2024-02-28T01:49:24;3.70;53.20
34989;DHT22;21192;40.182;44.516;2024-02-28T01:51:50;3.80;53.20
34989;DHT22;21192;40.182;44.516;2024-02-28T01:54:20;3.70;53.10
34989;DHT22;21192;40.182;44.516;2024-02-28T01:56:46;3.60;53.10
34989;DHT22;21192;40.182;44.516;2024-02-28T01:59:13;3.50;53.20
34989;DHT22;21192;40.182;44.516;2024-02-28T02:01:39;3.50;53.40
34989;DHT22;21192;40.182;44.516;2024-02-28T02:04:05;3.40;53.60
34989;DHT22;21192;40.182;44.516;2024-02-28T02:06:32;3.40;53.60
34989;DHT22;21192;40.182;44.516;2024-02-28T02:08:58;3.30;53.70
34989;DHT22;21192;40.182;44.516;2024-02-28T02:11:25;3.20;53.70
34989;DHT22;21192;40.182;44.516;2024-02-28T02:13:52;3.30;53.90
34989;DHT22;21192;40.182;44.516;2024-02-28T02:16:19;3.40;53.80
34989;DHT22;21192;40.182;44.516;2024-02-28T02:18:47;3.40;53.70
34989;DHT22;21192;40.182;44.516;2024-02-28T02:21:17;3.40;53.70
34989;DHT22;21192;40.182;44.516;2024-02-28T02:23:43;3.30;53.70
34989;DHT22;21192;40.182;44.516;2024-02-28T02:26:09;3.30;53.80
34989;DHT22;21192;40.182;44.516;2024-02-28T02:28:35;3.30;53.90
34989;DHT22;21192;40.182;44.516;2024-02-28T02:31:01;3.30;54.00
34989;DHT22;21192;40.182;44.516;2024-02-28T02:33:27;3.30;54.00
34989;DHT22;21192;40.182;44.516;2024-02-28T02:35:55;3.30;54.00
34989;DHT22;21192;40.182;44.516;2024-02-28T02:38:21;3.30;53.90
34989;DHT22;21192;40.182;44.516;2024-02-28T02:40:51;3.40;53.80
34989;DHT22;21192;40.182;44.516;2024-02-28T02:43:17;3.40;53.60
34989;DHT22;21192;40.182;44.516;2024-02-28T02:45:43;3.30;53.60
34989;DHT22;21192;40.182;44.516;2024-02-28T02:48:10;3.30;53.50
34989;DHT22;21192;40.182;44.516;2024-02-28T02:50:36;3.40;53.60
34989;DHT22;21192;40.182;44.516;2024-02-28T02:53:06;3.40;53.50
34989;DHT22;21192;40.182;44.516;2024-02-28T02:55:32;3.50;53.60
34989;DHT22;21192;40.182;44.516;2024-02-28T02:57:58;3.30;54.20
34989;DHT22;21192;40.182;44.516;2024-02-28T03:00:24;3.10;55.70
34989;DHT22;21192;40.182;44.516;2024-02-28T03:02:50;3.20;56.70
34989;DHT22;21192;40.182;44.516;2024-02-28T03:05:16;3.40;57.50
34989;DHT22;21192;40.182;44.516;2024-02-28T03:07:42;3.60;57.20
34989;DHT22;21192;40.182;44.516;2024-02-28T03:10:08;3.60;56.70
34989;DHT22;21192;40.182;44.516;2024-02-28T03:12:36;3.70;56.10
34989;DHT22;21192;40.182;44.516;2024-02-28T03:15:02;3.70;55.60
34989;DHT22;21192;40.182;44.516;2024-02-28T03:17:29;3.70;55.30
34989;DHT22;21192;40.182;44.516;2024-02-28T03:19:55;3.70;55.20
34989;DHT22;21192;40.182;44.516;2024-02-28T03:22:22;3.70;54.80
34989;DHT22;21192;40.182;44.516;2024-02-28T03:24:47;3.80;54.30
34989;DHT22;21192;40.182;44.516;2024-02-28T03:27:14;3.70;54.20
34989;DHT22;21192;40.182;44.516;2024-02-28T03:29:40;3.60;54.10
34989;DHT22;21192;40.182;44.516;2024-02-28T03:32:06;3.60;54.10
34989;DHT22;21192;40.182;44.516;2024-02-28T03:34:32;3.70;54.10
34989;DHT22;21192;40.182;44.516;2024-02-28T03:36:58;3.70;53.80
34989;DHT22;21192;40.182;44.516;2024-02-28T03:39:24;3.60;53.70
34989;DHT22;21192;40.182;44.516;2024-02-28T03:41:49;3.70;53.70
34989;DHT22;21192;40.182;44.516;2024-02-28T03:44:15;3.60;53.40
34989;DHT22;21192;40.182;44.516;2024-02-28T03:46:41;3.50;53.40
34989;DHT22;21192;40.182;44.516;2024-02-28T03:49:07;3.50;53.70
34989;DHT22;21192;40.182;44.516;2024-02-28T03:51:41;3.50;54.20
34989;DHT22;21192;40.182;44.516;2024-02-28T03:54:08;3.40;54.00
34989;DHT22;21192;40.182;44.516;2024-02-28T03:56:34;3.40;53.80
34989;DHT22;21192;40.182;44.516;2024-02-28T03:59:01;3.30;53.70
34989;DHT22;21192;40.182;44.516;2024-02-28T04:01:27;3.30;53.70
34989;DHT22;21192;40.182;44.516;2024-02-28T04:03:52;3.20;53.60
34989;DHT22;21192;40.182;44.516;2024-02-28T04:06:18;3.20;53.60
34989;DHT22;21192;40.182;44.516;2024-02-28T04:08:44;3.20;53.60
34989;DHT22;21192;40.182;44.516;2024-02-28T04:11:10;3.30;53.60
34989;DHT22;21192;40.182;44.516;2024-02-28T04:13:36;3.30;53.40
34989;DHT22;21192;40.182;44.516;2024-02-28T04:16:02;3.40;53.30
34989;DHT22;21192;40.182;44.516;2024-02-28T04:18:29;3.40;53.10
34989;DHT22;21192;40.182;44.516;2024-02-28T04:20:55;3.50;53.00
34989;DHT22;21192;40.182;44.516;2024-02-28T04:23:21;3.50;52.90
34989;DHT22;21192;40.182;44.516;2024-02-28T04:25:47;3.50;52.80
34989;DHT22;21192;40.182;44.516;2024-02-28T04:28:13;3.70;52.80
34989;DHT22;21192;40.182;44.516;2024-02-28T04:30:39;3.80;52.50
34989;DHT22;21192;40.182;44.516;2024-02-28T04:33:05;3.90;52.40
34989;DHT22;21192;40.182;44.516;2024-02-28T04:35:31;4.00;52.40
34989;DHT22;21192;40.182;44.516;2024-02-28T04:37:56;4.00;52.70
34989;DHT22;21192;40.182;44.516;2024-02-28T04:40:22;4.00;53.10
34989;DHT22;21192;40.182;44.516;2024-02-28T04:42:48;4.30;53.50
34989;DHT22;21192;40.182;44.516;2024-02-28T04:45:14;4.30;53.30
34989;DHT22;21192;40.182;44.516;2024-02-28T04:47:40;4.40;53.20
34989;DHT22;21192;40.182;44.516;2024-02-28T04:50:06;4.50;52.90
34989;DHT22;21192;40.182;44.516;2024-02-28T04:52:33;4.60;52.70
34989;DHT22;21192;40.182;44.516;2024-02-28T04:54:59;4.70;52.60
34989;DHT22;21192;40.182;44.516;2024-02-28T04:57:25;4.60;52.70
34989;DHT22;21192;40.182;44.516;2024-02-28T04:59:51;4.60;53.10
34989;DHT22;21192;40.182;44.516;2024-02-28T05:02:18;4.30;53.40
34989;DHT22;21192;40.182;44.516;2024-02-28T05:04:44;4.20;53.90
34989;DHT22;21192;40.182;44.516;2024-02-28T05:07:10;4.10;54.30
34989;DHT22;21192;40.182;44.516;2024-02-28T05:09:36;4.10;54.70
34989;DHT22;21192;40.182;44.516;2024-02-28T05:12:02;4.10;54.90
34989;DHT22;21192;40.182;44.516;2024-02-28T05:14:28;4.20;54.70
34989;DHT22;21192;40.182;44.516;2024-02-28T05:16:55;4.20;54.30
34989;DHT22;21192;40.182;44.516;2024-02-28T05:19:21;4.80;54.10
34989;DHT22;21192;40.182;44.516;2024-02-28T05:21:47;5.50;53.30
34989;DHT22;21192;40.182;44.516;2024-02-28T05:24:14;8.10;52.80
34989;DHT22;21192;40.182;44.516;2024-02-28T05:26:40;10.70;50.00
34989;DHT22;21192;40.182;44.516;2024-02-28T05:29:06;13.10;46.50
34989;DHT22;21192;40.182;44.516;2024-02-28T05:31:32;14.90;42.30
34989;DHT22;21192;40.182;44.516;2024-02-28T05:33:58;16.60;39.30
34989;DHT22;21192;40.182;44.516;2024-02-28T05:36:26;17.90;37.10
34989;DHT22;21192;40.182;44.516;2024-02-28T05:38:54;18.80;34.60
34989;DHT22;21192;40.182;44.516;2024-02-28T05:41:20;19.70;33.00
34989;DHT22;21192;40.182;44.516;2024-02-28T05:43:47;20.90;32.20
34989;DHT22;21192;40.182;44.516;2024-02-28T05:46:14;21.90;30.60
34989;DHT22;21192;40.182;44.516;2024-02-28T05:48:43;22.50;29.60
34989;DHT22;21192;40.182;44.516;2024-02-28T05:51:11;23.70;29.10
34989;DHT22;21192;40.182;44.516;2024-02-28T05:53:37;24.30;27.90
34989;DHT22;21192;40.182;44.516;2024-02-28T05:56:07;24.60;27.60
34989;DHT22;21192;40.182;44.516;2024-02-28T05:58:43;25.00;26.90
34989;DHT22;21192;40.182;44.516;2024-02-28T06:01:10;25.60;26.60
34989;DHT22;21192;40.182;44.516;2024-02-28T06:03:37;26.60;26.30
34989;DHT22;21192;40.182;44.516;2024-02-28T06:06:03;27.70;25.60
34989;DHT22;21192;40.182;44.516;2024-02-28T06:08:33;28.30;25.20
34989;DHT22;21192;40.182;44.516;2024-02-28T06:10:59;28.60;24.60
34989;DHT22;21192;40.182;44.516;2024-02-28T06:13:26;29.30;24.50
34989;DHT22;21192;40.182;44.516;2024-02-28T06:15:52;30.00;24.10
34989;DHT22;21192;40.182;44.516;2024-02-28T06:18:18;29.70;23.50
34989;DHT22;21192;40.182;44.516;2024-02-28T06:20:44;29.00;23.60
34989;DHT22;21192;40.182;44.516;2024-02-28T06:23:10;28.90;23.60
34989;DHT22;21192;40.182;44.516;2024-02-28T06:25:36;29.10;23.40
34989;DHT22;21192;40.182;44.516;2024-02-28T06:28:01;29.30;23.20
34989;DHT22;21192;40.182;44.516;2024-02-28T06:30:28;29.20;23.00
34989;DHT22;21192;40.182;44.516;2024-02-28T06:32:59;27.00;22.90
34989;DHT22;21192;40.182;44.516;2024-02-28T06:35:25;24.50;23.80
34989;DHT22;21192;40.182;44.516;2024-02-28T06:37:51;22.90;24.80
34989;DHT22;21192;40.182;44.516;2024-02-28T06:40:17;22.20;25.40
34989;DHT22;21192;40.182;44.516;2024-02-28T06:42:44;20.60;25.90
34989;DHT22;21192;40.182;44.516;2024-02-28T06:45:10;19.40;26.60
34989;DHT22;21192;40.182;44.516;2024-02-28T06:47:35;18.20;27.50
34989;DHT22;21192;40.182;44.516;2024-02-28T06:50:05;17.10;28.50
34989;DHT22;21192;40.182;44.516;2024-02-28T06:52:32;16.40;29.10
34989;DHT22;21192;40.182;44.516;2024-02-28T06:54:59;15.30;30.20
34989;DHT22;21192;40.182;44.516;2024-02-28T06:57:26;14.40;31.10
34989;DHT22;21192;40.182;44.516;2024-02-28T06:59:52;13.80;31.90
34989;DHT22;21192;40.182;44.516;2024-02-28T07:02:18;13.60;32.40
34989;DHT22;21192;40.182;44.516;2024-02-28T07:04:44;13.20;33.00
34989;DHT22;21192;40.182;44.516;2024-02-28T07:07:09;13.30;33.10
34989;DHT22;21192;40.182;44.516;2024-02-28T07:09:38;13.30;33.20
34989;DHT22;21192;40.182;44.516;2024-02-28T07:12:04;13.20;33.10
34989;DHT22;21192;40.182;44.516;2024-02-28T07:14:30;12.70;33.60
34989;DHT22;21192;40.182;44.516;2024-02-28T07:16:56;12.10;34.50
34989;DHT22;21192;40.182;44.516;2024-02-28T07:19:22;11.80;35.50
34989;DHT22;21192;40.182;44.516;2024-02-28T07:21:47;11.60;35.80
34989;DHT22;21192;40.182;44.516;2024-02-28T07:24:13;11.70;36.00
34989;DHT22;21192;40.182;44.516;2024-02-28T07:26:39;11.60;36.20
34989;DHT22;21192;40.182;44.516;2024-02-28T07:29:06;11.40;36.30
34989;DHT22;21192;40.182;44.516;2024-02-28T07:31:32;11.20;36.40
34989;DHT22;21192;40.182;44.516;2024-02-28T07:33:58;10.80;37.00
34989;DHT22;21192;40.182;44.516;2024-02-28T07:36:24;10.80;37.30
34989;DHT22;21192;40.182;44.516;2024-02-28T07:38:50;10.80;37.50
34989;DHT22;21192;40.182;44.516;2024-02-28T07:41:17;10.40;38.00
34989;DHT22;21192;40.182;44.516;2024-02-28T07:43:43;10.20;38.50
34989;DHT22;21192;40.182;44.516;2024-02-28T07:46:10;10.30;38.70
34989;DHT22;21192;40.182;44.516;2024-02-28T07:48:40;10.10;38.90
34989;DHT22;21192;40.182;44.516;2024-02-28T07:51:06;9.80;39.20
34989;DHT22;21192;40.182;44.516;2024-02-28T07:53:33;9.70;39.50
34989;DHT22;21192;40.182;44.516;2024-02-28T07:55:59;9.40;39.80
34989;DHT22;21192;40.182;44.516;2024-02-28T07:58:25;9.40;40.00
34989;DHT22;21192;40.182;44.516;2024-02-28T08:00:51;9.60;39.90
34989;DHT22;21192;40.182;44.516;2024-02-28T08:03:20;9.70;39.80
34989;DHT22;21192;40.182;44.516;2024-02-28T08:05:46;9.60;40.00
34989;DHT22;21192;40.182;44.516;2024-02-28T08:08:14;9.70;40.20
34989;DHT22;21192;40.182;44.516;2024-02-28T08:10:40;9.80;40.10
34989;DHT22;21192;40.182;44.516;2024-02-28T08:13:06;9.70;39.90
34989;DHT22;21192;40.182;44.516;2024-02-28T08:15:33;9.60;39.90
34989;DHT22;21192;40.182;44.516;2024-02-28T08:17:59;9.60;39.90
34989;DHT22;21192;40.182;44.516;2024-02-28T08:20:25;9.40;40.20
34989;DHT22;21192;40.182;44.516;2024-02-28T08:22:51;9.50;40.40
34989;DHT22;21192;40.182;44.516;2024-02-28T08:25:22;9.70;40.30
34989;DHT22;21192;40.182;44.516;2024-02-28T08:27:48;9.60;40.10
34989;DHT22;21192;40.182;44.516;2024-02-28T08:30:14;9.50;40.10
34989;DHT22;21192;40.182;44.516;2024-02-28T08:32:41;9.60;40.00
34989;DHT22;21192;40.182;44.516;2024-02-28T08:35:08;9.60;40.00
34989;DHT22;21192;40.182;44.516;2024-02-28T08:37:34;9.10;40.40
34989;DHT22;21192;40.182;44.516;2024-02-28T08:40:00;8.90;41.10
34989;DHT22;21192;40.182;44.516;2024-02-28T08:42:26;8.90;41.20
34989;DHT22;21192;40.182;44.516;2024-02-28T08:44:53;8.80;41.50
34989;DHT22;21192;40.182;44.516;2024-02-28T08:47:26;8.80;41.50
34989;DHT22;21192;40.182;44.516;2024-02-28T08:49:52;8.80;41.40
34989;DHT22;21192;40.182;44.516;2024-02-28T08:52:19;8.80;41.20
34989;DHT22;21192;40.182;44.516;2024-02-28T08:54:46;9.00;40.90
34989;DHT22;21192;40.182;44.516;2024-02-28T08:57:12;9.10;40.70
34989;DHT22;21192;40.182;44.516;2024-02-28T08:59:37;9.10;40.90
34989;DHT22;21192;40.182;44.516;2024-02-28T09:02:03;8.90;40.90
34989;DHT22;21192;40.182;44.516;2024-02-28T09:04:29;9.00;41.00
34989;DHT22;21192;40.182;44.516;2024-02-28T09:06:56;8.90;41.00
34989;DHT22;21192;40.182;44.516;2024-02-28T09:09:22;8.70;41.10
34989;DHT22;21192;40.182;44.516;2024-02-28T09:11:47;8.60;41.30
34989;DHT22;21192;40.182;44.516;2024-02-28T09:14:13;8.70;41.20
34989;DHT22;21192;40.182;44.516;2024-02-28T09:16:39;8.80;40.90
34989;DHT22;21192;40.182;44.516;2024-02-28T09:19:05;8.90;40.60
34989;DHT22;21192;40.182;44.516;2024-02-28T09:21:31;8.80;40.60
34989;DHT22;21192;40.182;44.516;2024-02-28T09:23:57;8.70;40.80
34989;DHT22;21192;40.182;44.516;2024-02-28T09:26:23;8.90;40.90
34989;DHT22;21192;40.182;44.516;2024-02-28T09:28:49;8.90;40.80
34989;DHT22;21192;40.182;44.516;2024-02-28T09:31:15;8.80;40.80
34989;DHT22;21192;40.182;44.516;2024-02-28T09:33:43;8.80;40.80
34989;DHT22;21192;40.182;44.516;2024-02-28T09:36:12;8.90;40.50
34989;DHT22;21192;40.182;44.516;2024-02-28T09:38:38;8.90;40.30
34989;DHT22;21192;40.182;44.516;2024-02-28T09:41:04;8.90;40.40
34989;DHT22;21192;40.182;44.516;2024-02-28T09:43:31;8.70;40.60
34989;DHT22;21192;40.182;44.516;2024-02-28T09:46:03;8.70;40.90
34989;DHT22;21192;40.182;44.516;2024-02-28T09:48:30;8.70;40.80
34989;DHT22;21192;40.182;44.516;2024-02-28T09:51:00;8.70;40.60
34989;DHT22;21192;40.182;44.516;2024-02-28T09:53:26;8.80;40.40
34989;DHT22;21192;40.182;44.516;2024-02-28T09:55:52;8.70;41.00
34989;DHT22;21192;40.182;44.516;2024-02-28T09:58:19;8.60;40.70
34989;DHT22;21192;40.182;44.516;2024-02-28T10:00:48;8.70;40.50
34989;DHT22;21192;40.182;44.516;2024-02-28T10:03:17;8.60;40.50
34989;DHT22;21192;40.182;44.516;2024-02-28T10:05:48;8.50;40.50
34989;DHT22;21192;40.182;44.516;2024-02-28T10:08:15;8.40;40.40
34989;DHT22;21192;40.182;44.516;2024-02-28T10:10:47;8.50;40.50
34989;DHT22;21192;40.182;44.516;2024-02-28T10:13:15;8.70;40.40
34989;DHT22;21192;40.182;44.516;2024-02-28T10:15:41;8.70;40.30
34989;DHT22;21192;40.182;44.516;2024-02-28T10:18:07;8.90;40.00
34989;DHT22;21192;40.182;44.516;2024-02-28T10:20:34;9.00;39.90
34989;DHT22;21192;40.182;44.516;2024-02-28T10:23:04;9.10;39.80
34989;DHT22;21192;40.182;44.516;2024-02-28T10:25:31;9.20;39.70
34989;DHT22;21192;40.182;44.516;2024-02-28T10:28:01;9.30;39.50
34989;DHT22;21192;40.182;44.516;2024-02-28T10:30:27;9.10;39.30
34989;DHT22;21192;40.182;44.516;2024-02-28T10:32:53;9.00;39.50
34989;DHT22;21192;40.182;44.516;2024-02-28T10:35:20;9.00;39.50
34989;DHT22;21192;40.182;44.516;2024-02-28T10:37:47;9.10;39.40
34989;DHT22;21192;40.182;44.516;2024-02-28T10:40:17;9.10;39.40
34989;DHT22;21192;40.182;44.516;2024-02-28T10:42:43;9.00;39.50
34989;DHT22;21192;40.182;44.516;2024-02-28T10:45:12;8.90;39.80
34989;DHT22;21192;40.182;44.516;2024-02-28T10:47:39;8.80;40.00
34989;DHT22;21192;40.182;44.516;2024-02-28T10:50:05;8.80;40.70
34989;DHT22;21192;40.182;44.516;2024-02-28T10:52:41;8.80;40.10
34989;DHT22;21192;40.182;44.516;2024-02-28T10:55:09;8.70;40.30
34989;DHT22;21192;40.182;44.516;2024-02-28T10:57:36;8.70;40.40
34989;DHT22;21192;40.182;44.516;2024-02-28T11:00:04;8.80;40.50
34989;DHT22;21192;40.182;44.516;2024-02-28T11:02:32;8.70;40.30
34989;DHT22;21192;40.182;44.516;2024-02-28T11:04:58;8.60;40.30
34989;DHT22;21192;40.182;44.516;2024-02-28T11:07:27;8.70;40.30
34989;DHT22;21192;40.182;44.516;2024-02-28T11:09:56;8.90;40.30
34989;DHT22;21192;40.182;44.516;2024-02-28T11:12:26;8.90;40.10
34989;DHT22;21192;40.182;44.516;2024-02-28T11:15:01;9.00;40.00
34989;DHT22;21192;40.182;44.516;2024-02-28T11:17:29;8.90;40.00
34989;DHT22;21192;40.182;44.516;2024-02-28T11:19:55;9.00;40.10
34989;DHT22;21192;40.182;44.516;2024-02-28T11:22:21;9.00;40.00
34989;DHT22;21192;40.182;44.516;2024-02-28T11:24:47;9.20;40.00
34989;DHT22;21192;40.182;44.516;2024-02-28T11:27:16;9.30;39.70
34989;DHT22;21192;40.182;44.516;2024-02-28T11:29:42;9.30;39.60
34989;DHT22;21192;40.182;44.516;2024-02-28T11:32:11;9.30;39.70
34989;DHT22;21192;40.182;44.516;2024-02-28T11:34:37;9.40;39.80
34989;DHT22;21192;40.182;44.516;2024-02-28T11:37:06;9.40;39.70
34989;DHT22;21192;40.182;44.516;2024-02-28T11:39:34;9.30;39.60
34989;DHT22;21192;40.182;44.516;2024-02-28T11:42:14;9.30;39.80
34989;DHT22;21192;40.182;44.516;2024-02-28T11:44:41;9.40;39.80
34989;DHT22;21192;40.182;44.516;2024-02-28T11:47:10;9.40;40.20
34989;DHT22;21192;40.182;44.516;2024-02-28T11:49:39;9.50;39.50
34989;DHT22;21192;40.182;44.516;2024-02-28T11:52:05;9.40;39.20
34989;DHT22;21192;40.182;44.516;2024-02-28T11:54:31;9.30;39.20
34989;DHT22;21192;40.182;44.516;2024-02-28T11:56:57;9.30;39.40
34989;DHT22;21192;40.182;44.516;2024-02-28T11:59:23;9.20;39.20
34989;DHT22;21192;40.182;44.516;2024-02-28T12:01:49;9.40;39.30
34989;DHT22;21192;40.182;44.516;2024-02-28T12:04:17;9.50;39.20
34989;DHT22;21192;40.182;44.516;2024-02-28T12:06:43;9.50;39.00
34989;DHT22;21192;40.182;44.516;2024-02-28T12:09:12;9.40;39.20
34989;DHT22;21192;40.182;44.516;2024-02-28T12:11:40;9.10;39.20
34989;DHT22;21192;40.182;44.516;2024-02-28T12:14:09;9.20;39.50
34989;DHT22;21192;40.182;44.516;2024-02-28T12:16:41;9.20;40.80
34989;DHT22;21192;40.182;44.516;2024-02-28T12:19:12;9.00;39.70
34989;DHT22;21192;40.182;44.516;2024-02-28T12:21:39;8.90;39.60
34989;DHT22;21192;40.182;44.516;2024-02-28T12:24:09;9.10;39.50
34989;DHT22;21192;40.182;44.516;2024-02-28T12:26:36;9.10;39.30
34989;DHT22;21192;40.182;44.516;2024-02-28T12:29:02;9.10;39.50
34989;DHT22;21192;40.182;44.516;2024-02-28T12:31:28;9.20;39.40
34989;DHT22;21192;40.182;44.516;2024-02-28T12:33:54;9.30;39.30
34989;DHT22;21192;40.182;44.516;2024-02-28T12:36:20;9.30;39.20
34989;DHT22;21192;40.182;44.516;2024-02-28T12:38:47;9.50;39.20
34989;DHT22;21192;40.182;44.516;2024-02-28T12:41:13;9.60;39.10
34989;DHT22;21192;40.182;44.516;2024-02-28T12:43:39;9.60;39.20
34989;DHT22;21192;40.182;44.516;2024-02-28T12:46:05;9.70;39.30
34989;DHT22;21192;40.182;44.516;2024-02-28T12:48:37;9.80;39.00
34989;DHT22;21192;40.182;44.516;2024-02-28T12:51:04;9.90;38.80
34989;DHT22;21192;40.182;44.516;2024-02-28T12:53:31;9.70;38.50
34989;DHT22;21192;40.182;44.516;2024-02-28T12:55:57;9.40;39.30
34989;DHT22;21192;40.182;44.516;2024-02-28T12:58:23;9.20;39.20
34989;DHT22;21192;40.182;44.516;2024-02-28T13:00:49;9.20;39.30
34989;DHT22;21192;40.182;44.516;2024-02-28T13:03:15;9.30;39.60
34989;DHT22;21192;40.182;44.516;2024-02-28T13:05:43;9.20;39.20
34989;DHT22;21192;40.182;44.516;2024-02-28T13:08:09;9.00;39.30
34989;DHT22;21192;40.182;44.516;2024-02-28T13:10:35;9.00;39.50
34989;DHT22;21192;40.182;44.516;2024-02-28T13:13:05;9.10;39.50
34989;DHT22;21192;40.182;44.516;2024-02-28T13:15:32;9.10;39.70
34989;DHT22;21192;40.182;44.516;2024-02-28T13:17:57;9.10;39.60
34989;DHT22;21192;40.182;44.516;2024-02-28T13:20:23;9.10;39.30
34989;DHT22;21192;40.182;44.516;2024-02-28T13:22:50;9.30;39.40
34989;DHT22;21192;40.182;44.516;2024-02-28T13:25:16;9.50;39.10
34989;DHT22;21192;40.182;44.516;2024-02-28T13:27:45;9.60;38.70
34989;DHT22;21192;40.182;44.516;2024-02-28T13:30:12;9.60;38.60
34989;DHT22;21192;40.182;44.516;2024-02-28T13:32:39;9.70;38.50
34989;DHT22;21192;40.182;44.516;2024-02-28T13:35:05;9.70;38.30
34989;DHT22;21192;40.182;44.516;2024-02-28T13:37:31;9.60;38.30
34989;DHT22;21192;40.182;44.516;2024-02-28T13:39:59;9.70;38.40
34989;DHT22;21192;40.182;44.516;2024-02-28T13:42:25;9.70;38.50
34989;DHT22;21192;40.182;44.516;2024-02-28T13:44:51;9.80;38.50
34989;DHT22;21192;40.182;44.516;2024-02-28T13:47:17;9.80;38.50
34989;DHT22;21192;40.182;44.516;2024-02-28T13:49:43;9.80;38.50
34989;DHT22;21192;40.182;44.516;2024-02-28T13:52:09;9.80;38.30
34989;DHT22;21192;40.182;44.516;2024-02-28T13:54:35;9.80;38.30
34989;DHT22;21192;40.182;44.516;2024-02-28T13:57:01;9.90;38.50
34989;DHT22;21192;40.182;44.516;2024-02-28T13:59:30;9.90;38.30
34989;DHT22;21192;40.182;44.516;2024-02-28T14:01:57;9.70;38.10
34989;DHT22;21192;40.182;44.516;2024-02-28T14:04:25;9.80;38.40
34989;DHT22;21192;40.182;44.516;2024-02-28T14:06:51;9.90;38.40
34989;DHT22;21192;40.182;44.516;2024-02-28T14:09:17;9.90;38.20
34989;DHT22;21192;40.182;44.516;2024-02-28T14:11:43;9.80;38.20
34989;DHT22;21192;40.182;44.516;2024-02-28T14:14:11;9.70;38.10
34989;DHT22;21192;40.182;44.516;2024-02-28T14:16:37;9.70;38.10
34989;DHT22;21192;40.182;44.516;2024-02-28T14:19:03;9.70;38.00
34989;DHT22;21192;40.182;44.516;2024-02-28T14:21:29;9.70;38.30
34989;DHT22;21192;40.182;44.516;2024-02-28T14:23:55;9.50;38.20
34989;DHT22;21192;40.182;44.516;2024-02-28T14:26:21;9.40;38.30
34989;DHT22;21192;40.182;44.516;2024-02-28T14:28:50;9.30;38.30
34989;DHT22;21192;40.182;44.516;2024-02-28T14:31:15;9.20;38.40
34989;DHT22;21192;40.182;44.516;2024-02-28T14:33:41;9.20;38.50
34989;DHT22;21192;40.182;44.516;2024-02-28T14:36:07;9.00;38.50
34989;DHT22;21192;40.182;44.516;2024-02-28T14:38:33;9.00;38.70
34989;DHT22;21192;40.182;44.516;2024-02-28T14:40:59;9.10;38.70
34989;DHT22;21192;40.182;44.516;2024-02-28T14:43:25;9.00;38.70
34989;DHT22;21192;40.182;44.516;2024-02-28T14:45:54;9.00;38.90
34989;DHT22;21192;40.182;44.516;2024-02-28T14:48:21;9.00;38.90
34989;DHT22;21192;40.182;44.516;2024-02-28T14:50:47;9.00;38.80
34989;DHT22;21192;40.182;44.516;2024-02-28T14:53:13;9.10;38.90
34989;DHT22;21192;40.182;44.516;2024-02-28T14:55:42;9.10;38.80
34989;DHT22;21192;40.182;44.516;2024-02-28T14:58:10;9.10;38.70
34989;DHT22;21192;40.182;44.516;2024-02-28T15:00:36;9.10;38.70
34989;DHT22;21192;40.182;44.516;2024-02-28T15:03:02;9.00;38.70
34989;DHT22;21192;40.182;44.516;2024-02-28T15:05:28;9.00;38.90
34989;DHT22;21192;40.182;44.516;2024-02-28T15:07:53;9.10;38.80
34989;DHT22;21192;40.182;44.516;2024-02-28T15:10:20;9.10;38.60
34989;DHT22;21192;40.182;44.516;2024-02-28T15:12:46;9.00;38.40
34989;DHT22;21192;40.182;44.516;2024-02-28T15:15:12;9.10;38.30
34989;DHT22;21192;40.182;44.516;2024-02-28T15:17:38;9.00;38.20
34989;DHT22;21192;40.182;44.516;2024-02-28T15:20:04;8.80;38.20
34989;DHT22;21192;40.182;44.516;2024-02-28T15:22:33;8.80;38.30
34989;DHT22;21192;40.182;44.516;2024-02-28T15:24:59;8.80;38.50